<?xml version="1.0" encoding="UTF-8"?>
<gpx xmlns="http://www.topografix.com/GPX/1/1" xmlns:gpsies="http://www.gpsies.com/GPX/1/0" creator="GPSies http://www.gpsies.com - Effort_6852615354" version="1.1" xmlns:xsi="http://www.w3.org/2001/XMLSchema-instance" xsi:schemaLocation="http://www.topografix.com/GPX/1/1 http://www.topografix.com/GPX/1/1/gpx.xsd http://www.gpsies.com/GPX/1/0 http://www.gpsies.com/gpsies.xsd">
  <metadata>
    <name>Effort_6852615354</name>
    <link href="http://www.gpsies.com/">
      <text>Effort_6852615354 on GPSies.com</text>
    </link>
    <time>2015-04-29T18:31:59Z</time>
  </metadata>
  <trk>
    <name>Effort_6852615354 on GPSies.com</name>
    <trkseg>
      <trkpt lat="57.67172000" lon="12.02984000">
        <ele>101.00000</ele>
        <time>2015-04-24T15:13:05Z</time>
      </trkpt>
      <trkpt lat="57.67183000" lon="12.02986000">
        <ele>103.00000</ele>
        <time>2015-04-24T15:13:09Z</time>
      </trkpt>
      <trkpt lat="57.67190000" lon="12.02977000">
        <ele>103.00000</ele>
        <time>2015-04-24T15:13:12Z</time>
      </trkpt>
      <trkpt lat="57.67198000" lon="12.02968000">
        <ele>104.00000</ele>
        <time>2015-04-24T15:13:15Z</time>
      </trkpt>
      <trkpt lat="57.67206000" lon="12.02965000">
        <ele>105.00000</ele>
        <time>2015-04-24T15:13:18Z</time>
      </trkpt>
      <trkpt lat="57.67222000" lon="12.02959000">
        <ele>105.00000</ele>
        <time>2015-04-24T15:13:21Z</time>
      </trkpt>
      <trkpt lat="57.67233000" lon="12.02963000">
        <ele>104.00000</ele>
        <time>2015-04-24T15:13:24Z</time>
      </trkpt>
      <trkpt lat="57.67244000" lon="12.02971000">
        <ele>104.00000</ele>
        <time>2015-04-24T15:13:27Z</time>
      </trkpt>
      <trkpt lat="57.67251000" lon="12.02971000">
        <ele>104.00000</ele>
        <time>2015-04-24T15:13:34Z</time>
      </trkpt>
      <trkpt lat="57.67254000" lon="12.02971000">
        <ele>104.00000</ele>
        <time>2015-04-24T15:13:37Z</time>
      </trkpt>
      <trkpt lat="57.67258000" lon="12.02970000">
        <ele>104.00000</ele>
        <time>2015-04-24T15:13:41Z</time>
      </trkpt>
      <trkpt lat="57.67263000" lon="12.02962000">
        <ele>103.00000</ele>
        <time>2015-04-24T15:13:45Z</time>
      </trkpt>
      <trkpt lat="57.67262000" lon="12.02956000">
        <ele>103.00000</ele>
        <time>2015-04-24T15:13:48Z</time>
      </trkpt>
      <trkpt lat="57.67263000" lon="12.02943000">
        <ele>103.00000</ele>
        <time>2015-04-24T15:13:52Z</time>
      </trkpt>
      <trkpt lat="57.67265000" lon="12.02923000">
        <ele>102.00000</ele>
        <time>2015-04-24T15:13:55Z</time>
      </trkpt>
      <trkpt lat="57.67270000" lon="12.02903000">
        <ele>101.00000</ele>
        <time>2015-04-24T15:13:58Z</time>
      </trkpt>
      <trkpt lat="57.67272000" lon="12.02891000">
        <ele>101.00000</ele>
        <time>2015-04-24T15:14:05Z</time>
      </trkpt>
      <trkpt lat="57.67272000" lon="12.02883000">
        <ele>101.00000</ele>
        <time>2015-04-24T15:14:10Z</time>
      </trkpt>
      <trkpt lat="57.67270000" lon="12.02865000">
        <ele>99.000000</ele>
        <time>2015-04-24T15:14:14Z</time>
      </trkpt>
      <trkpt lat="57.67269000" lon="12.02850000">
        <ele>98.000000</ele>
        <time>2015-04-24T15:14:18Z</time>
      </trkpt>
      <trkpt lat="57.67268000" lon="12.02836000">
        <ele>96.000000</ele>
        <time>2015-04-24T15:14:22Z</time>
      </trkpt>
      <trkpt lat="57.67267000" lon="12.02823000">
        <ele>95.000000</ele>
        <time>2015-04-24T15:14:26Z</time>
      </trkpt>
      <trkpt lat="57.67264000" lon="12.02807000">
        <ele>93.000000</ele>
        <time>2015-04-24T15:14:30Z</time>
      </trkpt>
      <trkpt lat="57.67265000" lon="12.02797000">
        <ele>92.000000</ele>
        <time>2015-04-24T15:14:36Z</time>
      </trkpt>
      <trkpt lat="57.67264000" lon="12.02789000">
        <ele>91.000000</ele>
        <time>2015-04-24T15:16:06Z</time>
      </trkpt>
      <trkpt lat="57.67262000" lon="12.02770000">
        <ele>90.000000</ele>
        <time>2015-04-24T15:16:09Z</time>
      </trkpt>
      <trkpt lat="57.67258000" lon="12.02751000">
        <ele>87.000000</ele>
        <time>2015-04-24T15:16:12Z</time>
      </trkpt>
      <trkpt lat="57.67254000" lon="12.02734000">
        <ele>85.000000</ele>
        <time>2015-04-24T15:16:15Z</time>
      </trkpt>
      <trkpt lat="57.67244000" lon="12.02724000">
        <ele>84.000000</ele>
        <time>2015-04-24T15:16:19Z</time>
      </trkpt>
      <trkpt lat="57.67242000" lon="12.02713000">
        <ele>82.000000</ele>
        <time>2015-04-24T15:16:23Z</time>
      </trkpt>
      <trkpt lat="57.67245000" lon="12.02700000">
        <ele>82.000000</ele>
        <time>2015-04-24T15:16:27Z</time>
      </trkpt>
      <trkpt lat="57.67237000" lon="12.02694000">
        <ele>82.000000</ele>
        <time>2015-04-24T15:16:31Z</time>
      </trkpt>
      <trkpt lat="57.67229000" lon="12.02687000">
        <ele>82.000000</ele>
        <time>2015-04-24T15:16:34Z</time>
      </trkpt>
      <trkpt lat="57.67218000" lon="12.02676000">
        <ele>81.000000</ele>
        <time>2015-04-24T15:16:37Z</time>
      </trkpt>
      <trkpt lat="57.67202000" lon="12.02671000">
        <ele>80.000000</ele>
        <time>2015-04-24T15:16:40Z</time>
      </trkpt>
      <trkpt lat="57.67183000" lon="12.02662000">
        <ele>78.000000</ele>
        <time>2015-04-24T15:16:43Z</time>
      </trkpt>
      <trkpt lat="57.67175000" lon="12.02672000">
        <ele>77.000000</ele>
        <time>2015-04-24T15:16:48Z</time>
      </trkpt>
      <trkpt lat="57.67169000" lon="12.02672000">
        <ele>76.000000</ele>
        <time>2015-04-24T15:16:51Z</time>
      </trkpt>
      <trkpt lat="57.67166000" lon="12.02667000">
        <ele>76.000000</ele>
        <time>2015-04-24T15:16:54Z</time>
      </trkpt>
      <trkpt lat="57.67155000" lon="12.02669000">
        <ele>75.000000</ele>
        <time>2015-04-24T15:16:57Z</time>
      </trkpt>
      <trkpt lat="57.67141000" lon="12.02677000">
        <ele>73.000000</ele>
        <time>2015-04-24T15:17:00Z</time>
      </trkpt>
      <trkpt lat="57.67129000" lon="12.02691000">
        <ele>71.000000</ele>
        <time>2015-04-24T15:17:03Z</time>
      </trkpt>
      <trkpt lat="57.67114000" lon="12.02704000">
        <ele>69.000000</ele>
        <time>2015-04-24T15:17:06Z</time>
      </trkpt>
      <trkpt lat="57.67091000" lon="12.02698000">
        <ele>68.000000</ele>
        <time>2015-04-24T15:17:09Z</time>
      </trkpt>
    </trkseg>
  </trk>
</gpx>

